Flight Track Log - Related Links

Times and Time Zones

All times are in EDT time to prevent confusion due to time zone crossing. See the EJM826 flight status page for this flight to view local times or setup timezone preferences in your user account.


Time Position Orientation Groundspeed Altitude Reporting Facility
EDT Latitude Longitude Course Direction KTS MPH feet Rate Location/Type
Wed 10:59:16 AM 34.1667 -118.3500 231° Southwest 174 200 1,900  Level Southern California TRACON
Wed 11:00:16 AM 34.1333 -118.4000 231° Southwest 223 257 4,200 2,256 Climbing Southern California TRACON
Wed 11:01:13 AM 34.1689 -118.4514 310° West 231 266 6,300 1,462 Climbing Los Angeles Center
Wed 11:02:15 AM 34.2367 -118.4792 341° North 275 316 7,100 701 Climbing Los Angeles Center
Wed 11:03:30 AM 34.2675 -118.4067 63° Northeast 268 308 7,900 876 Climbing Los Angeles Center
Wed 11:04:32 AM 34.2253 -118.3175 120° Southeast 255 293 9,100 532 Climbing Los Angeles Center
Wed 11:05:34 AM 34.1492 -118.2669 151° Southeast 266 306 9,000 -48 Descending Los Angeles Center
Wed 11:06:36 AM 34.0822 -118.2261 153° Southeast 270 311 9,000 -145 Level Los Angeles Center
Wed 11:07:38 AM 34.0139 -118.1886 156° South 269 310 8,700 -532 Descending Los Angeles Center
Wed 11:08:40 AM 33.9397 -118.1808 175° South 265 305 7,900 -726 Descending Los Angeles Center
Wed 11:09:42 AM 33.8731 -118.2003 194° South 245 282 7,200 -677 Descending Los Angeles Center
Wed 11:12:00 AM 33.8711 -118.1529 93° East  Level FlightAware Approximate
Wed 11:19:00 AM 33.7689 -118.0038 140° Southeast  Level Estimated
Wed 11:20:00 AM 33.7543 -117.9826 140° Southeast  Level Estimated
Wed 11:21:00 AM 33.7461 -117.9568 111° Southeast  Level FlightAware Approximate
Wed 11:22:00 AM 33.7303 -117.9369 148° Southeast  Level Estimated
Wed 11:23:00 AM 33.7134 -117.9182 137° Southeast  Level FlightAware Approximate
Wed 11:24:00 AM 33.6965 -117.8996 137° Southeast  Level FlightAware Approximate
Wed 11:25:00 AM 33.6822 -117.8780 148° Southeast  Level Estimated
Wed 11:26:00 AM 33.6757 -117.8682 148° Southeast  Level Estimated
Wed 11:27:00 AM 33.6757 -117.8682 148° Southeast  Level Estimated
Wed 11:28:00 AM 33.6757 -117.8682 148° Southeast  Level Estimated
Wed 11:29:00 AM 33.6757 -117.8682 148° Southeast  Level Estimated
Wed 11:30:00 AM 33.6757 -117.8682 148° Southeast  Level Estimated
Wed 11:31:00 AM 33.6757 -117.8682 148° Southeast  Level Estimated
Wed 11:32:00 AM 33.6757 -117.8682 148° Southeast  Level Estimated
Wed 11:33:00 AM 33.6757 -117.8682 148° Southeast  Level Estimated
Wed 11:34:00 AM 33.6757 -117.8682 148° Southeast  Level Estimated
Wed 11:35:00 AM 33.6757 -117.8682 148° Southeast  Level Estimated
Wed 11:36:00 AM 33.6757 -117.8682 148° Southeast  Level Estimated
Wed 11:37:00 AM 33.6757 -117.8682 148° Southeast  Level Estimated
Wed 11:38:00 AM 33.6757 -117.8682 148° Southeast  Level Estimated
Wed 11:39:00 AM 33.6757 -117.8682 148° Southeast  Level Estimated
Wed 11:40:00 AM 33.6757 -117.8682 148° Southeast  Level Estimated
Wed 11:41:00 AM 33.6757 -117.8682 148° Southeast  Level Estimated
Wed 11:42:00 AM 33.6757 -117.8682 148° Southeast  Level Estimated
Wed 11:43:00 AM 33.6757 -117.8682 148° Southeast  Level Estimated
Wed 11:44:00 AM 33.6757 -117.8682 148° Southeast  Level Estimated

Login

Don't have an account? Register now (free) for customized features, flight alerts, and more!